Time;durP1;ratioP1;P1;durP2;ratioP2;P2;SDS_P1;SDS_P2;PMS_P1;PMS_P2;Temp;Humidity;BMP_temperature;BMP_pressure;BME280_temperature;BME280_humidity;BME280_pressure;Samples;Min_cycle;Max_cycle;Signal;HPM_P1;HPM_P2
2023/01/15 00:01:20;;;;;;;1.10;1.00;;;7.70;99.90;;;;;;5032964;28;20449;-73
2023/01/15 00:03:47;;;;;;;1.07;0.80;;;7.60;99.90;;;;;;5033006;28;20785;-72
2023/01/15 00:06:16;;;;;;;1.00;0.87;;;7.50;99.90;;;;;;5032301;28;20501;-72
2023/01/15 00:08:44;;;;;;;0.90;0.70;;;7.30;99.90;;;;;;5032297;28;20494;-72
2023/01/15 00:11:11;;;;;;;1.37;1.03;;;7.10;99.90;;;;;;5032688;28;20496;-72
2023/01/15 00:13:38;;;;;;;1.00;0.70;;;7.00;99.90;;;;;;5032177;28;20485;-72
2023/01/15 00:16:06;;;;;;;2.40;1.10;;;6.90;99.90;;;;;;5031709;28;20421;-72
2023/01/15 00:18:33;;;;;;;1.50;1.10;;;6.90;99.90;;;;;;5032420;28;20597;-72
2023/01/15 00:21:00;;;;;;;1.47;0.93;;;6.80;99.90;;;;;;5032768;28;20516;-72
2023/01/15 00:29:02;;;;;;;1.67;1.10;;;6.90;99.90;;;;;;5032625;28;20878;-73
2023/01/15 00:31:29;;;;;;;3.53;0.93;;;6.90;99.90;;;;;;5032612;28;20504;-72
2023/01/15 00:33:56;;;;;;;7.70;1.13;;;6.80;99.90;;;;;;5032212;28;20445;-72
2023/01/15 00:36:24;;;;;;;1.10;0.90;;;6.90;99.90;;;;;;5032618;28;20452;-73
2023/01/15 00:38:53;;;;;;;1.10;0.93;;;7.00;99.90;;;;;;5032482;28;21151;-72
2023/01/15 00:41:21;;;;;;;3.77;1.40;;;7.00;99.90;;;;;;5032131;28;20469;-72
2023/01/15 00:43:48;;;;;;;1.13;1.03;;;7.10;99.90;;;;;;5032437;28;20531;-72
2023/01/15 00:46:15;;;;;;;1.00;0.73;;;7.10;99.90;;;;;;5032066;28;20974;-72
2023/01/15 00:48:43;;;;;;;1.10;0.90;;;7.10;99.90;;;;;;5031839;28;20938;-74
2023/01/15 00:51:09;;;;;;;1.00;0.77;;;7.20;99.90;;;;;;5031933;28;20478;-72
2023/01/15 00:53:37;;;;;;;1.87;1.30;;;7.20;99.90;;;;;;4996821;28;20459;-72
2023/01/15 00:56:05;;;;;;;0.90;0.70;;;7.20;99.90;;;;;;5031745;28;20535;-73
2023/01/15 00:58:32;;;;;;;2.50;1.27;;;7.30;99.90;;;;;;5031942;28;20548;-72
2023/01/15 01:01:00;;;;;;;2.40;2.20;;;7.20;99.90;;;;;;5032092;28;20510;-72
2023/01/15 01:03:27;;;;;;;1.00;0.77;;;7.30;99.90;;;;;;5031774;28;20426;-72
2023/01/15 01:05:59;;;;;;;1.00;0.80;;;7.20;99.90;;;;;;5031919;28;20559;-72
2023/01/15 01:08:26;;;;;;;1.10;1.00;;;7.20;99.90;;;;;;5033337;28;20476;-73
2023/01/15 01:11:02;;;;;;;3.03;2.93;;;7.30;99.90;;;;;;5032116;28;20530;-72
2023/01/15 01:13:32;;;;;;;1.60;1.27;;;7.30;99.90;;;;;;5032339;28;20435;-72
2023/01/15 01:15:59;;;;;;;3.57;1.30;;;7.40;99.90;;;;;;5031717;28;20481;-73
2023/01/15 01:18:26;;;;;;;1.90;1.63;;;7.40;99.90;;;;;;5032138;28;20473;-72
2023/01/15 01:20:53;;;;;;;2.17;1.10;;;7.40;99.90;;;;;;5032416;28;20462;-74
2023/01/15 01:23:22;;;;;;;1.20;0.80;;;7.40;99.90;;;;;;5031691;28;20446;-73
2023/01/15 01:25:49;;;;;;;1.00;0.90;;;7.40;99.90;;;;;;5031850;28;20452;-72
2023/01/15 01:28:16;;;;;;;1.07;0.97;;;7.50;99.90;;;;;;5033995;28;20440;-73
2023/01/15 01:30:45;;;;;;;1.00;0.83;;;7.40;99.90;;;;;;5035245;28;20828;-72
2023/01/15 01:33:12;;;;;;;1.27;1.17;;;7.30;99.90;;;;;;5035759;28;20481;-73
2023/01/15 01:35:39;;;;;;;1.30;0.90;;;7.40;99.90;;;;;;5035290;28;20466;-72
2023/01/15 01:38:06;;;;;;;2.73;1.20;;;7.40;99.90;;;;;;5035292;28;20501;-72
2023/01/15 01:40:33;;;;;;;1.40;1.03;;;7.40;99.90;;;;;;5035337;28;20932;-72
2023/01/15 01:43:01;;;;;;;3.00;2.10;;;7.40;99.90;;;;;;5034783;28;20451;-72
2023/01/15 01:45:32;;;;;;;1.13;1.03;;;7.40;99.90;;;;;;5034753;28;20469;-73
2023/01/15 01:48:06;;;;;;;1.30;0.90;;;7.40;99.90;;;;;;5035022;28;20528;-72
2023/01/15 01:50:35;;;;;;;1.87;1.20;;;7.50;99.90;;;;;;5034283;28;20434;-72
2023/01/15 01:53:07;;;;;;;1.10;0.87;;;7.40;99.90;;;;;;5034369;28;20420;-72
2023/01/15 01:55:37;;;;;;;2.90;1.20;;;7.40;99.90;;;;;;5034904;28;20412;-72
2023/01/15 01:58:08;;;;;;;1.47;1.00;;;7.50;99.90;;;;;;5034435;28;20486;-72
2023/01/15 02:00:38;;;;;;;1.20;0.90;;;7.40;99.90;;;;;;5034762;28;20436;-72
2023/01/15 02:03:09;;;;;;;1.20;1.00;;;7.40;99.90;;;;;;5034525;28;20420;-72
2023/01/15 02:05:47;;;;;;;1.00;0.90;;;7.40;99.90;;;;;;5034753;28;20831;-72
2023/01/15 02:08:14;;;;;;;8.73;1.63;;;7.50;99.90;;;;;;5034319;28;20985;-72
2023/01/15 02:10:41;;;;;;;1.10;0.70;;;7.40;99.90;;;;;;5034336;28;20452;-72
2023/01/15 02:13:12;;;;;;;1.67;1.00;;;7.40;99.90;;;;;;5034000;28;20420;-72
2023/01/15 02:15:43;;;;;;;1.10;0.93;;;7.40;99.90;;;;;;5034549;28;20447;-73
2023/01/15 02:18:22;;;;;;;1.00;0.77;;;7.40;99.90;;;;;;5034315;28;20796;-72
2023/01/15 02:20:55;;;;;;;4.60;1.20;;;7.50;99.90;;;;;;5034155;28;20540;-71
2023/01/15 02:23:46;;;;;;;1.30;0.80;;;7.40;99.90;;;;;;5034427;28;20455;-71
2023/01/15 02:26:41;;;;;;;2.50;0.90;;;7.50;99.90;;;;;;5034156;28;20427;-72
2023/01/15 02:29:15;;;;;;;1.10;0.80;;;7.60;99.90;;;;;;5023661;28;20484;-72
2023/01/15 02:31:45;;;;;;;1.30;0.83;;;7.60;99.90;;;;;;5034716;28;20473;-73
2023/01/15 02:34:16;;;;;;;1.43;0.90;;;7.50;99.90;;;;;;5034699;28;20560;-72
2023/01/15 02:36:47;;;;;;;2.37;1.20;;;7.50;99.90;;;;;;5034446;28;20458;-72
2023/01/15 02:39:17;;;;;;;1.30;1.00;;;7.50;99.90;;;;;;5033978;28;20435;-72
2023/01/15 02:41:50;;;;;;;3.43;0.90;;;7.60;99.90;;;;;;5033707;28;20457;-73
2023/01/15 02:44:22;;;;;;;1.00;0.80;;;7.60;99.90;;;;;;5033825;28;20438;-72
2023/01/15 02:46:50;;;;;;;0.90;0.60;;;7.60;99.90;;;;;;5033833;28;20416;-72
2023/01/15 02:49:22;;;;;;;1.00;0.80;;;7.60;99.90;;;;;;5033768;28;20448;-72
2023/01/15 02:51:55;;;;;;;5.33;1.27;;;7.50;99.90;;;;;;5033929;28;20530;-72
2023/01/15 02:54:27;;;;;;;1.47;1.00;;;7.50;99.90;;;;;;5033642;28;20499;-72
2023/01/15 02:56:57;;;;;;;1.10;0.73;;;7.50;99.90;;;;;;5033488;28;20624;-72
2023/01/15 02:59:30;;;;;;;2.13;1.40;;;7.50;99.90;;;;;;5033857;28;20500;-72
2023/01/15 03:02:01;;;;;;;3.13;1.00;;;7.50;99.90;;;;;;5033642;28;20433;-72
2023/01/15 03:04:32;;;;;;;1.33;1.17;;;7.50;99.90;;;;;;5033418;28;20408;-72
2023/01/15 03:07:06;;;;;;;1.97;1.07;;;7.50;99.90;;;;;;5033190;28;20457;-72
2023/01/15 03:09:34;;;;;;;2.00;1.10;;;7.60;99.90;;;;;;5032859;28;20916;-72
2023/01/15 03:12:09;;;;;;;1.40;1.10;;;7.50;99.90;;;;;;5033128;28;20494;-71
2023/01/15 03:14:44;;;;;;;1.53;1.43;;;7.50;99.90;;;;;;5032731;28;20429;-72
2023/01/15 03:17:16;;;;;;;1.20;0.83;;;7.50;99.90;;;;;;5032963;28;20506;-71
2023/01/15 03:19:48;;;;;;;1.70;1.17;;;7.40;99.90;;;;;;5033012;28;20432;-71
2023/01/15 03:22:21;;;;;;;0.90;0.70;;;7.50;99.90;;;;;;5033207;28;20443;-71
2023/01/15 03:24:52;;;;;;;1.00;0.83;;;7.50;99.90;;;;;;5033220;28;20404;-73
2023/01/15 03:27:19;;;;;;;2.07;1.10;;;7.50;99.90;;;;;;5032933;28;20493;-72
2023/01/15 03:29:50;;;;;;;0.90;0.60;;;7.50;99.90;;;;;;5033071;28;20424;-71
2023/01/15 03:32:18;;;;;;;1.30;0.80;;;7.60;99.90;;;;;;5032709;28;20436;-72
2023/01/15 03:34:49;;;;;;;1.10;0.90;;;7.50;99.90;;;;;;5031240;28;20457;-72
2023/01/15 03:37:16;;;;;;;1.40;1.10;;;7.50;99.90;;;;;;5032713;28;20477;-72
2023/01/15 03:39:44;;;;;;;1.00;0.70;;;7.50;99.90;;;;;;5032894;28;20459;-72
2023/01/15 03:42:20;;;;;;;1.27;0.93;;;7.50;99.90;;;;;;5032431;28;20515;-73
2023/01/15 03:44:57;;;;;;;2.17;1.23;;;7.50;99.90;;;;;;5033033;28;20812;-73
2023/01/15 03:47:38;;;;;;;1.30;1.00;;;7.50;99.90;;;;;;5033448;28;20498;-73
2023/01/15 03:50:14;;;;;;;1.80;1.40;;;7.50;99.90;;;;;;5033392;28;20420;-72
2023/01/15 03:52:46;;;;;;;1.50;0.80;;;7.50;99.90;;;;;;5032574;28;20516;-72
2023/01/15 03:55:16;;;;;;;1.03;0.90;;;7.50;99.90;;;;;;5032543;28;20465;-73
2023/01/15 03:57:49;;;;;;;1.03;0.80;;;7.50;99.90;;;;;;5032506;28;20463;-72
2023/01/15 04:00:21;;;;;;;1.27;0.90;;;7.50;99.90;;;;;;5032505;28;20518;-72
2023/01/15 04:02:53;;;;;;;1.57;0.90;;;7.50;99.90;;;;;;5032556;28;20462;-72
2023/01/15 04:05:21;;;;;;;1.10;0.90;;;7.40;99.90;;;;;;5032959;28;20426;-72
2023/01/15 04:07:50;;;;;;;1.00;0.83;;;7.40;99.90;;;;;;5031961;28;20960;-73
2023/01/15 04:10:17;;;;;;;1.77;1.20;;;7.40;99.90;;;;;;5031756;28;20527;-73
2023/01/15 04:12:44;;;;;;;1.00;0.83;;;7.40;99.90;;;;;;5031727;28;20464;-72
2023/01/15 04:15:11;;;;;;;1.83;1.07;;;7.40;99.90;;;;;;5031766;28;20506;-71
2023/01/15 04:17:39;;;;;;;1.23;0.90;;;7.40;99.90;;;;;;5031555;28;20484;-72
2023/01/15 04:20:08;;;;;;;1.00;0.80;;;7.50;99.90;;;;;;5032226;28;20822;-72
2023/01/15 04:22:35;;;;;;;1.00;0.90;;;7.40;99.90;;;;;;5031934;28;20800;-72
2023/01/15 04:25:02;;;;;;;1.67;1.17;;;7.50;99.90;;;;;;5032109;28;20801;-72
2023/01/15 04:27:29;;;;;;;2.27;0.80;;;7.40;99.90;;;;;;5031784;28;21003;-72
2023/01/15 04:29:56;;;;;;;3.57;1.03;;;7.30;99.90;;;;;;5031965;28;20511;-72
2023/01/15 04:32:24;;;;;;;1.73;1.17;;;7.30;99.90;;;;;;5031565;28;20510;-72
2023/01/15 04:34:54;;;;;;;3.83;1.13;;;7.30;99.90;;;;;;5031774;28;20447;-72
2023/01/15 04:37:21;;;;;;;1.10;1.00;;;7.20;99.90;;;;;;5031711;28;20878;-72
2023/01/15 04:39:48;;;;;;;0.97;0.80;;;7.20;99.90;;;;;;5031805;28;20424;-74
2023/01/15 04:45:01;;;;;;;1.23;1.00;;;7.30;99.90;;;;;;5032284;28;20528;-72
2023/01/15 04:47:31;;;;;;;1.40;1.17;;;7.30;99.90;;;;;;5031694;28;20568;-72
2023/01/15 04:49:59;;;;;;;6.43;1.27;;;7.30;99.90;;;;;;5030396;28;20456;-72
2023/01/15 04:52:27;;;;;;;3.13;1.23;;;7.40;99.90;;;;;;5031841;28;20462;-72
2023/01/15 04:54:55;;;;;;;1.40;1.10;;;7.40;99.90;;;;;;5032084;28;20544;-72
2023/01/15 04:57:22;;;;;;;1.10;0.90;;;7.40;99.90;;;;;;5031604;28;20522;-73
2023/01/15 04:59:49;;;;;;;1.73;0.90;;;7.40;99.90;;;;;;5032357;28;20432;-72
2023/01/15 05:02:16;;;;;;;2.80;1.43;;;7.50;99.90;;;;;;5033791;28;20454;-72
2023/01/15 05:04:43;;;;;;;5.03;1.00;;;7.40;99.90;;;;;;5035596;28;20924;-72
2023/01/15 05:07:11;;;;;;;2.43;1.10;;;7.40;99.90;;;;;;5036069;28;20495;-72
2023/01/15 05:09:38;;;;;;;1.50;1.23;;;7.40;99.90;;;;;;5037026;28;20511;-72
2023/01/15 05:12:06;;;;;;;4.50;1.37;;;7.40;99.90;;;;;;5035550;28;20475;-72
2023/01/15 05:14:33;;;;;;;1.23;1.07;;;7.40;99.90;;;;;;5035649;28;20556;-72
2023/01/15 05:17:00;;;;;;;1.00;0.70;;;7.40;99.90;;;;;;5035471;28;20477;-71
2023/01/15 05:19:27;;;;;;;1.20;1.07;;;7.30;99.90;;;;;;5034824;28;20531;-71
2023/01/15 05:21:54;;;;;;;11.30;3.23;;;7.40;99.90;;;;;;5034987;28;20468;-71
2023/01/15 05:24:23;;;;;;;4.50;1.30;;;7.30;99.90;;;;;;5035534;28;20467;-72
2023/01/15 05:26:50;;;;;;;3.93;1.47;;;7.20;99.90;;;;;;5035345;28;20446;-73
2023/01/15 05:29:17;;;;;;;1.77;1.20;;;7.30;99.90;;;;;;5034932;28;20507;-72
2023/01/15 05:31:45;;;;;;;1.43;1.33;;;7.30;99.90;;;;;;5034918;28;20547;-72
2023/01/15 05:34:12;;;;;;;1.00;0.80;;;7.30;99.90;;;;;;5034436;28;20470;-72
2023/01/15 05:36:40;;;;;;;3.03;1.10;;;7.30;99.90;;;;;;5034435;28;20965;-72
2023/01/15 05:39:07;;;;;;;1.00;0.70;;;7.30;99.90;;;;;;5034739;28;20464;-72
2023/01/15 05:41:52;;;;;;;1.30;0.90;;;7.30;99.90;;;;;;5034480;28;20548;-72
2023/01/15 05:44:22;;;;;;;2.27;1.20;;;7.40;99.90;;;;;;5034897;28;20888;-72
2023/01/15 05:46:50;;;;;;;0.90;0.60;;;7.30;99.90;;;;;;5035246;28;20489;-72
2023/01/15 05:49:19;;;;;;;1.13;0.97;;;7.30;99.90;;;;;;5034752;28;20553;-72
2023/01/15 05:51:46;;;;;;;1.10;1.00;;;7.40;99.90;;;;;;5034754;28;20436;-72
2023/01/15 05:54:17;;;;;;;1.87;0.90;;;7.40;99.90;;;;;;5034493;28;20456;-72
2023/01/15 05:56:46;;;;;;;2.60;1.20;;;7.50;99.90;;;;;;5034477;28;20461;-72
2023/01/15 05:59:14;;;;;;;1.97;0.80;;;7.50;99.90;;;;;;5034427;28;20484;-72
2023/01/15 06:01:42;;;;;;;2.70;1.07;;;7.50;99.90;;;;;;5038181;28;20427;-72
2023/01/15 06:04:10;;;;;;;2.00;1.00;;;7.50;99.90;;;;;;5039709;28;20513;-72
2023/01/15 06:06:37;;;;;;;1.20;1.10;;;7.60;99.90;;;;;;5034019;28;20436;-72
2023/01/15 06:09:04;;;;;;;1.20;0.73;;;7.50;99.90;;;;;;5033682;28;20544;-72
2023/01/15 06:11:31;;;;;;;1.40;0.70;;;7.40;99.90;;;;;;5037148;28;20495;-72
2023/01/15 06:14:00;;;;;;;1.50;1.40;;;7.40;99.90;;;;;;5033481;28;20551;-72
2023/01/15 06:16:27;;;;;;;1.10;0.90;;;7.30;99.90;;;;;;5034378;28;20445;-72
2023/01/15 06:18:54;;;;;;;0.90;0.80;;;7.30;99.90;;;;;;5034594;28;20879;-72
2023/01/15 06:21:21;;;;;;;1.40;0.80;;;7.40;99.90;;;;;;5034032;28;20625;-72
2023/01/15 06:23:48;;;;;;;3.97;0.80;;;7.40;99.90;;;;;;5034311;28;20420;-73
2023/01/15 06:26:17;;;;;;;1.10;0.90;;;7.40;99.90;;;;;;5033551;28;20445;-72
2023/01/15 06:28:45;;;;;;;1.20;0.80;;;7.50;99.90;;;;;;5037729;28;20559;-72
2023/01/15 06:31:16;;;;;;;2.70;1.10;;;7.40;99.90;;;;;;5033715;28;20512;-72
2023/01/15 06:33:43;;;;;;;1.10;0.90;;;7.40;99.90;;;;;;5033925;28;20484;-72
2023/01/15 06:36:13;;;;;;;1.00;0.80;;;7.40;99.90;;;;;;5033620;28;20947;-72
2023/01/15 06:38:40;;;;;;;2.03;1.40;;;7.50;99.90;;;;;;5033611;28;20479;-71
2023/01/15 06:49:19;;;;;;;1.00;0.80;;;7.40;99.90;;;;;;5012024;28;20423;-71
2023/01/15 06:51:46;;;;;;;1.10;0.83;;;7.40;99.90;;;;;;5035418;28;21019;-71
2023/01/15 06:54:13;;;;;;;5.23;1.10;;;7.40;99.90;;;;;;5033303;28;20506;-71
2023/01/15 06:56:40;;;;;;;2.13;1.93;;;7.40;99.90;;;;;;5033407;28;20546;-71
2023/01/15 06:59:07;;;;;;;3.20;1.27;;;7.40;99.90;;;;;;5033615;28;20530;-72
2023/01/15 07:01:35;;;;;;;1.37;0.90;;;7.40;99.90;;;;;;5033491;28;20432;-71
2023/01/15 07:04:02;;;;;;;2.27;1.50;;;7.40;99.90;;;;;;5033220;28;20462;-72
2023/01/15 07:06:29;;;;;;;1.17;0.73;;;7.40;99.90;;;;;;5032886;28;20937;-72
2023/01/15 07:08:57;;;;;;;1.40;1.00;;;7.30;99.90;;;;;;5033112;28;20469;-71
2023/01/15 07:11:24;;;;;;;1.73;1.07;;;7.40;99.90;;;;;;5032781;28;20428;-71
2023/01/15 07:14:04;;;;;;;1.10;1.00;;;7.40;99.90;;;;;;5032693;28;20461;-71
2023/01/15 07:16:31;;;;;;;1.00;0.80;;;7.50;99.90;;;;;;5032890;28;20420;-71
2023/01/15 07:18:59;;;;;;;1.10;1.00;;;7.50;99.90;;;;;;5032090;28;20455;-71
2023/01/15 07:21:27;;;;;;;5.57;1.67;;;7.50;99.90;;;;;;5032546;28;20523;-71
2023/01/15 07:23:55;;;;;;;0.90;0.70;;;7.50;99.90;;;;;;5032610;28;20840;-71
2023/01/15 07:26:22;;;;;;;1.30;1.13;;;7.50;99.90;;;;;;5031727;28;20470;-71
2023/01/15 07:28:49;;;;;;;1.47;0.80;;;7.50;99.90;;;;;;5030995;28;20470;-72
2023/01/15 07:31:16;;;;;;;5.57;1.07;;;7.50;99.90;;;;;;5034931;28;20477;-72
2023/01/15 07:33:44;;;;;;;1.27;1.17;;;7.50;99.90;;;;;;5033690;28;20823;-72
2023/01/15 07:36:12;;;;;;;1.67;0.90;;;7.50;99.90;;;;;;5032998;28;20445;-73
2023/01/15 07:38:39;;;;;;;2.03;1.53;;;7.50;99.90;;;;;;5032705;28;20580;-72
2023/01/15 07:52:07;;;;;;;2.50;2.10;;;7.30;99.90;;;;;;5032607;28;20432;-72
2023/01/15 07:54:34;;;;;;;3.50;1.50;;;7.30;99.90;;;;;;5032196;28;20536;-72
2023/01/15 07:57:01;;;;;;;1.50;1.20;;;7.30;99.90;;;;;;5031935;28;20897;-72
2023/01/15 07:59:28;;;;;;;4.53;1.10;;;7.40;99.90;;;;;;5031799;28;20420;-72
2023/01/15 08:01:55;;;;;;;1.17;0.90;;;7.50;99.90;;;;;;5032244;28;20450;-72
2023/01/15 08:04:22;;;;;;;2.00;1.80;;;7.50;99.90;;;;;;5031900;28;20438;-72
2023/01/15 08:06:49;;;;;;;2.07;0.80;;;7.40;99.90;;;;;;5032125;28;20951;-72
2023/01/15 08:09:17;;;;;;;2.70;1.00;;;7.40;99.90;;;;;;5031537;28;20555;-72
2023/01/15 08:17:13;;;;;;;1.57;1.10;;;7.30;99.90;;;;;;5031526;28;20778;-72
2023/01/15 08:19:40;;;;;;;4.17;1.43;;;7.40;99.90;;;;;;5031857;28;20503;-72
2023/01/15 08:22:07;;;;;;;1.27;1.17;;;7.40;99.90;;;;;;5031863;28;20423;-72
2023/01/15 08:24:35;;;;;;;2.30;1.23;;;7.40;99.90;;;;;;5029945;28;20865;-74
2023/01/15 08:27:02;;;;;;;2.90;1.93;;;7.30;99.90;;;;;;5032064;28;20548;-72
2023/01/15 08:29:29;;;;;;;6.20;0.90;;;7.40;99.90;;;;;;5031729;28;20534;-72
2023/01/15 08:31:56;;;;;;;1.67;1.57;;;7.40;99.90;;;;;;5031723;28;20872;-72
2023/01/15 08:34:23;;;;;;;2.70;1.00;;;7.40;99.90;;;;;;5031820;28;20575;-72
2023/01/15 08:36:55;;;;;;;1.83;0.80;;;7.30;99.90;;;;;;5032894;28;20913;-72
2023/01/15 08:39:22;;;;;;;1.77;1.23;;;7.40;99.90;;;;;;5035440;28;20445;-72
2023/01/15 08:41:51;;;;;;;4.80;1.80;;;7.40;99.90;;;;;;5035706;28;21045;-72
2023/01/15 08:44:20;;;;;;;16.83;2.13;;;7.30;99.90;;;;;;5035805;28;20487;-72
2023/01/15 08:46:47;;;;;;;1.33;1.17;;;7.30;99.90;;;;;;5035594;28;20438;-72
2023/01/15 08:49:14;;;;;;;1.83;1.30;;;7.40;99.90;;;;;;5035701;28;20466;-72
2023/01/15 08:51:41;;;;;;;2.93;1.53;;;7.30;99.90;;;;;;5039878;28;20476;-72
2023/01/15 08:54:08;;;;;;;1.00;0.90;;;7.30;99.90;;;;;;5035944;28;20460;-73
2023/01/15 08:56:35;;;;;;;1.40;0.97;;;7.30;99.90;;;;;;5035123;28;20555;-71
2023/01/15 08:59:06;;;;;;;1.20;0.90;;;7.30;99.90;;;;;;5035272;28;20447;-71
2023/01/15 09:01:33;;;;;;;2.37;1.00;;;7.40;99.90;;;;;;5035240;28;20499;-71
2023/01/15 09:04:00;;;;;;;2.20;0.90;;;7.40;99.90;;;;;;5035021;28;20447;-71
2023/01/15 09:06:28;;;;;;;2.27;1.10;;;7.40;99.90;;;;;;5035530;28;20491;-71
2023/01/15 09:08:55;;;;;;;3.53;1.00;;;7.30;99.90;;;;;;5035892;28;20821;-71
2023/01/15 09:11:21;;;;;;;1.97;1.67;;;7.20;99.90;;;;;;5036026;28;20427;-72
2023/01/15 09:13:50;;;;;;;2.67;1.00;;;7.20;99.90;;;;;;5035031;28;20524;-73
2023/01/15 09:16:18;;;;;;;1.47;1.13;;;7.10;99.90;;;;;;5034977;28;20423;-71
2023/01/15 09:18:46;;;;;;;2.00;1.37;;;7.20;99.90;;;;;;5034703;28;20562;-71
2023/01/15 09:21:12;;;;;;;1.90;1.23;;;7.10;99.90;;;;;;5034869;28;20502;-71
2023/01/15 09:23:40;;;;;;;4.03;1.87;;;7.20;99.90;;;;;;5034507;28;20424;-71
2023/01/15 09:26:07;;;;;;;3.80;0.90;;;7.10;99.90;;;;;;5034749;28;20488;-71
2023/01/15 09:28:35;;;;;;;1.40;1.10;;;7.20;99.90;;;;;;5034869;28;20536;-71
2023/01/15 09:31:02;;;;;;;1.10;1.00;;;7.10;99.90;;;;;;5034629;28;20489;-71
2023/01/15 09:33:31;;;;;;;1.00;0.80;;;7.10;99.90;;;;;;5034399;28;20572;-72
2023/01/15 09:35:58;;;;;;;1.27;1.03;;;7.10;99.90;;;;;;5036950;28;20449;-72
2023/01/15 09:38:24;;;;;;;1.50;1.00;;;7.20;99.90;;;;;;5034207;28;20450;-72
2023/01/15 09:40:54;;;;;;;1.20;1.00;;;7.10;99.90;;;;;;5034550;28;20544;-71
2023/01/15 09:43:40;;;;;;;0.90;0.70;;;7.30;99.90;;;;;;5034805;28;20423;-72
2023/01/15 09:46:13;;;;;;;0.90;0.70;;;7.40;99.90;;;;;;5034711;28;20518;-72
2023/01/15 09:48:53;;;;;;;1.30;0.83;;;7.50;99.90;;;;;;5033171;28;20491;-72
2023/01/15 09:51:30;;;;;;;1.27;0.97;;;7.80;99.90;;;;;;5034131;28;20429;-71
2023/01/15 09:54:14;;;;;;;1.00;0.80;;;7.70;99.90;;;;;;5034452;28;20477;-72
2023/01/15 09:56:41;;;;;;;1.20;1.00;;;7.50;99.90;;;;;;5033738;28;20420;-72
2023/01/15 09:59:20;;;;;;;1.73;1.17;;;7.80;99.90;;;;;;5034145;28;20572;-72
2023/01/15 10:01:48;;;;;;;1.47;0.90;;;7.70;99.90;;;;;;5033853;28;20469;-72
2023/01/15 10:04:34;;;;;;;1.13;0.90;;;8.20;99.90;;;;;;5034217;28;20450;-72
2023/01/15 10:07:12;;;;;;;1.27;0.90;;;8.70;99.90;;;;;;5033773;28;20404;-72
2023/01/15 10:09:42;;;;;;;2.67;0.93;;;8.30;99.90;;;;;;5033714;28;20429;-72
2023/01/15 10:12:38;;;;;;;1.23;0.90;;;8.60;99.90;;;;;;5033050;28;20945;-72
2023/01/15 10:15:32;;;;;;;1.43;0.90;;;8.40;99.90;;;;;;5034331;28;20473;-72
2023/01/15 10:18:00;;;;;;;1.20;1.10;;;8.30;99.90;;;;;;5019767;28;20556;-72
2023/01/15 10:20:49;;;;;;;6.57;1.13;;;8.10;99.90;;;;;;5033320;28;20866;-72
2023/01/15 10:23:35;;;;;;;0.97;0.77;;;7.90;99.90;;;;;;5033787;28;20396;-72
2023/01/15 10:26:15;;;;;;;2.13;1.87;;;7.70;99.90;;;;;;5035639;28;20438;-72
2023/01/15 10:28:58;;;;;;;1.50;1.03;;;7.60;99.90;;;;;;5034199;28;20565;-72
2023/01/15 10:31:39;;;;;;;3.53;1.10;;;7.80;99.90;;;;;;5033657;28;20851;-72
2023/01/15 10:34:55;;;;;;;3.90;1.60;;;7.70;99.90;;;;;;5032989;28;21012;-72
2023/01/15 10:37:32;;;;;;;8.87;2.33;;;7.50;99.90;;;;;;5032912;28;21001;-72
2023/01/15 10:40:34;;;;;;;1.27;0.80;;;7.50;99.90;;;;;;5032845;28;20471;-72
2023/01/15 10:43:11;;;;;;;2.00;1.57;;;7.50;99.90;;;;;;5000125;28;20837;-72
2023/01/15 10:45:42;;;;;;;3.23;1.30;;;7.80;99.90;;;;;;5033175;28;20842;-72
2023/01/15 10:48:19;;;;;;;1.00;0.70;;;7.80;99.90;;;;;;5032981;28;20870;-73
2023/01/15 10:50:47;;;;;;;1.50;1.20;;;7.90;99.90;;;;;;5033173;28;20524;-72
2023/01/15 10:53:29;;;;;;;1.60;1.20;;;8.00;99.90;;;;;;5033022;28;20423;-72
2023/01/15 10:56:02;;;;;;;1.73;1.20;;;8.20;99.90;;;;;;5036788;28;20463;-73
2023/01/15 10:58:37;;;;;;;1.40;1.10;;;8.20;99.90;;;;;;5033133;28;20474;-72
2023/01/15 11:01:10;;;;;;;8.10;2.00;;;8.20;99.90;;;;;;5032594;28;20608;-72
2023/01/15 11:03:40;;;;;;;3.90;1.97;;;8.40;99.90;;;;;;5032923;28;20405;-72
2023/01/15 11:06:14;;;;;;;0.97;0.70;;;8.40;99.90;;;;;;5032884;28;20430;-72
2023/01/15 11:08:46;;;;;;;2.87;1.03;;;8.30;99.90;;;;;;5032907;28;20451;-72
2023/01/15 11:19:40;;;;;;;1.10;1.00;;;8.20;99.90;;;;;;5031716;28;20413;-72
2023/01/15 11:22:11;;;;;;;2.40;1.10;;;8.20;99.90;;;;;;5032382;28;20552;-72
2023/01/15 11:24:47;;;;;;;19.37;2.23;;;8.50;99.90;;;;;;5032130;28;20938;-72
2023/01/15 11:27:20;;;;;;;2.07;1.40;;;8.40;99.90;;;;;;5032406;28;20506;-72
2023/01/15 11:29:53;;;;;;;7.23;1.00;;;8.50;99.90;;;;;;5032151;28;20930;-72
2023/01/15 11:32:26;;;;;;;4.93;0.90;;;9.00;99.90;;;;;;5032116;28;20413;-72
2023/01/15 11:34:59;;;;;;;1.47;1.00;;;9.60;99.90;;;;;;5034308;28;20475;-72
2023/01/15 11:37:26;;;;;;;1.87;1.30;;;10.00;99.90;;;;;;5033766;28;20477;-73
2023/01/15 11:39:56;;;;;;;3.17;1.10;;;9.50;99.90;;;;;;5032083;28;20446;-72
2023/01/15 11:51:06;;;;;;;1.23;0.83;;;8.80;99.90;;;;;;5031126;28;20384;-71
2023/01/15 11:53:38;;;;;;;2.03;1.27;;;8.50;99.90;;;;;;5031085;28;20537;-71
2023/01/15 11:56:14;;;;;;;1.23;1.13;;;8.40;99.90;;;;;;5031825;28;20817;-71
2023/01/15 11:58:45;;;;;;;1.23;0.83;;;8.40;99.90;;;;;;5031938;28;21073;-71
2023/01/15 12:01:15;;;;;;;1.60;1.50;;;8.40;99.90;;;;;;5031991;28;20404;-72
2023/01/15 12:03:44;;;;;;;3.00;1.67;;;8.30;99.90;;;;;;5031275;28;20774;-73
2023/01/15 12:06:14;;;;;;;1.40;1.10;;;8.50;99.90;;;;;;5031017;28;20508;-73
2023/01/15 12:08:50;;;;;;;2.67;1.50;;;8.50;99.90;;;;;;5031015;28;20970;-71
2023/01/15 12:11:42;;;;;;;0.90;0.70;;;8.40;99.90;;;;;;5032134;28;20409;-71
2023/01/15 12:14:38;;;;;;;2.03;1.30;;;8.40;99.90;;;;;;5019208;28;21074;-71
2023/01/15 12:17:20;;;;;;;1.30;1.03;;;8.30;99.90;;;;;;5037980;28;20434;-73
2023/01/15 12:19:54;;;;;;;1.93;0.80;;;8.10;99.90;;;;;;5028738;28;20419;-73
2023/01/15 12:22:31;;;;;;;6.70;1.60;;;8.00;99.90;;;;;;5031486;28;20453;-72
2023/01/15 12:25:21;;;;;;;1.20;1.10;;;7.90;99.90;;;;;;5032248;28;20439;-72
2023/01/15 12:28:07;;;;;;;1.70;1.00;;;8.00;99.90;;;;;;5031829;28;21044;-72
2023/01/15 12:30:48;;;;;;;3.93;1.17;;;8.20;99.90;;;;;;5012783;28;20984;-72
2023/01/15 12:33:32;;;;;;;1.87;1.23;;;8.40;99.90;;;;;;5032116;28;20824;-72
2023/01/15 12:36:03;;;;;;;2.37;2.27;;;8.40;99.90;;;;;;5031766;28;20415;-71
2023/01/15 12:38:44;;;;;;;6.03;1.20;;;8.30;99.90;;;;;;5031902;28;20527;-71
2023/01/15 12:41:14;;;;;;;3.23;2.93;;;8.20;99.90;;;;;;5032250;28;20459;-72
2023/01/15 12:46:33;;;;;;;1.40;0.90;;;8.10;99.90;;;;;;5031533;28;20764;-72
2023/01/15 12:49:06;;;;;;;1.03;0.77;;;8.10;99.90;;;;;;5031631;28;20472;-71
2023/01/15 12:51:45;;;;;;;1.43;1.00;;;8.00;99.90;;;;;;5031992;28;20835;-71
2023/01/15 12:54:15;;;;;;;5.70;1.10;;;8.00;99.90;;;;;;5031929;28;20578;-72
2023/01/15 12:56:52;;;;;;;1.77;0.83;;;8.30;99.90;;;;;;5036930;28;20524;-72
2023/01/15 12:59:28;;;;;;;2.53;1.10;;;8.90;99.90;;;;;;5032769;28;20405;-72
2023/01/15 13:02:08;;;;;;;1.87;1.00;;;10.00;99.90;;;;;;5032458;28;20416;-72
2023/01/15 13:04:44;;;;;;;1.00;0.80;;;10.40;99.90;;;;;;5032245;28;20879;-72
2023/01/15 13:07:17;;;;;;;1.10;0.90;;;10.40;99.90;;;;;;5033401;28;20517;-73
2023/01/15 13:09:49;;;;;;;1.50;0.80;;;10.10;99.90;;;;;;5031749;28;20459;-72
2023/01/15 13:12:17;;;;;;;1.10;0.83;;;9.40;99.90;;;;;;5032157;28;20505;-73
2023/01/15 13:14:45;;;;;;;1.53;1.07;;;8.80;99.90;;;;;;5032081;28;20456;-72
2023/01/15 13:17:23;;;;;;;1.57;1.10;;;8.60;99.90;;;;;;4997275;28;20432;-73
2023/01/15 13:20:03;;;;;;;1.27;1.17;;;8.50;99.90;;;;;;5030656;28;20451;-72
2023/01/15 13:22:35;;;;;;;3.17;1.53;;;8.30;99.90;;;;;;5033054;28;20469;-73
2023/01/15 13:25:30;;;;;;;1.57;1.47;;;8.30;99.90;;;;;;5035639;28;20814;-72
2023/01/15 13:28:13;;;;;;;1.20;1.00;;;8.10;99.90;;;;;;5034108;28;20501;-72
2023/01/15 13:30:57;;;;;;;1.00;0.73;;;8.00;99.90;;;;;;5035642;28;20418;-72
2023/01/15 13:33:29;;;;;;;1.00;0.83;;;7.90;99.90;;;;;;5034329;28;20511;-73
2023/01/15 13:36:05;;;;;;;1.60;0.90;;;7.90;99.90;;;;;;5039048;28;20497;-72
2023/01/15 13:38:38;;;;;;;1.70;1.00;;;8.00;99.90;;;;;;5036756;28;20536;-72
2023/01/15 13:41:08;;;;;;;5.63;1.53;;;7.80;99.90;;;;;;5035287;28;20894;-73
2023/01/15 13:43:42;;;;;;;3.27;1.30;;;7.90;99.90;;;;;;5000586;28;20420;-73
2023/01/15 13:46:13;;;;;;;1.00;0.80;;;8.00;99.90;;;;;;5035625;28;20506;-72
2023/01/15 13:48:44;;;;;;;1.30;0.97;;;8.00;99.90;;;;;;5035282;28;20502;-73
2023/01/15 13:51:27;;;;;;;1.97;1.00;;;8.10;99.90;;;;;;5034955;28;20896;-73
2023/01/15 13:53:56;;;;;;;1.53;1.17;;;8.10;99.90;;;;;;5034827;28;20423;-73
2023/01/15 13:56:28;;;;;;;2.13;1.13;;;8.00;99.90;;;;;;5034550;28;20449;-72
2023/01/15 13:58:57;;;;;;;1.87;0.90;;;8.00;99.90;;;;;;5035369;28;20439;-73
2023/01/15 14:01:33;;;;;;;1.60;1.37;;;8.20;99.90;;;;;;5034864;28;20869;-73
2023/01/15 14:04:06;;;;;;;1.33;1.07;;;8.20;99.90;;;;;;5034714;28;20436;-72
2023/01/15 14:06:39;;;;;;;1.30;0.97;;;8.20;99.90;;;;;;5035061;28;20458;-72
2023/01/15 14:09:06;;;;;;;1.73;1.37;;;8.10;99.90;;;;;;5035208;28;20527;-71
2023/01/15 14:11:37;;;;;;;1.73;1.10;;;8.00;99.90;;;;;;5034642;28;20790;-73